sensor_id;sensor_type;location;lat;lon;timestamp;P1;durP1;ratioP1;P2;durP2;ratioP2
12947;SDS011;6539;49.476;8.484;2023-06-19T00:02:03;14.05;;;7.20;;
12947;SDS011;6539;49.476;8.484;2023-06-19T00:04:29;7.88;;;7.07;;
12947;SDS011;6539;49.476;8.484;2023-06-19T00:06:55;12.00;;;7.53;;
12947;SDS011;6539;49.476;8.484;2023-06-19T00:09:28;11.10;;;7.57;;
12947;SDS011;6539;49.476;8.484;2023-06-19T00:11:54;11.27;;;7.55;;
12947;SDS011;6539;49.476;8.484;2023-06-19T00:14:19;7.40;;;6.75;;
12947;SDS011;6539;49.476;8.484;2023-06-19T00:16:45;8.93;;;7.25;;
12947;SDS011;6539;49.476;8.484;2023-06-19T00:19:15;9.00;;;7.30;;
12947;SDS011;6539;49.476;8.484;2023-06-19T00:21:46;8.20;;;7.40;;
12947;SDS011;6539;49.476;8.484;2023-06-19T00:24:11;11.52;;;7.63;;
12947;SDS011;6539;49.476;8.484;2023-06-19T00:26:40;9.95;;;7.13;;
12947;SDS011;6539;49.476;8.484;2023-06-19T00:29:08;8.00;;;7.10;;
12947;SDS011;6539;49.476;8.484;2023-06-19T00:31:36;7.97;;;7.20;;
12947;SDS011;6539;49.476;8.484;2023-06-19T00:34:07;11.02;;;8.35;;
12947;SDS011;6539;49.476;8.484;2023-06-19T00:36:33;10.73;;;7.70;;
12947;SDS011;6539;49.476;8.484;2023-06-19T00:39:05;13.68;;;7.53;;
12947;SDS011;6539;49.476;8.484;2023-06-19T00:41:34;8.57;;;7.75;;
12947;SDS011;6539;49.476;8.484;2023-06-19T00:44:03;9.98;;;7.95;;
12947;SDS011;6539;49.476;8.484;2023-06-19T00:46:35;13.05;;;9.00;;
12947;SDS011;6539;49.476;8.484;2023-06-19T00:49:05;9.82;;;8.82;;
12947;SDS011;6539;49.476;8.484;2023-06-19T00:51:31;10.25;;;8.35;;
12947;SDS011;6539;49.476;8.484;2023-06-19T00:54:00;10.90;;;8.07;;
12947;SDS011;6539;49.476;8.484;2023-06-19T00:56:26;9.43;;;8.10;;
12947;SDS011;6539;49.476;8.484;2023-06-19T00:58:55;8.93;;;8.05;;
12947;SDS011;6539;49.476;8.484;2023-06-19T01:01:21;11.20;;;8.32;;
12947;SDS011;6539;49.476;8.484;2023-06-19T01:03:49;11.70;;;8.48;;
12947;SDS011;6539;49.476;8.484;2023-06-19T01:06:17;9.52;;;8.50;;
12947;SDS011;6539;49.476;8.484;2023-06-19T01:14:58;9.57;;;8.65;;
12947;SDS011;6539;49.476;8.484;2023-06-19T01:17:28;9.02;;;8.07;;
12947;SDS011;6539;49.476;8.484;2023-06-19T01:19:57;11.80;;;8.30;;
12947;SDS011;6539;49.476;8.484;2023-06-19T01:22:27;10.50;;;8.75;;
12947;SDS011;6539;49.476;8.484;2023-06-19T01:24:54;8.43;;;7.63;;
12947;SDS011;6539;49.476;8.484;2023-06-19T01:27:21;9.10;;;8.20;;
12947;SDS011;6539;49.476;8.484;2023-06-19T01:29:54;8.05;;;7.28;;
12947;SDS011;6539;49.476;8.484;2023-06-19T01:35:06;8.82;;;8.02;;
12947;SDS011;6539;49.476;8.484;2023-06-19T01:37:34;8.88;;;7.88;;
12947;SDS011;6539;49.476;8.484;2023-06-19T01:40:05;8.65;;;7.78;;
12947;SDS011;6539;49.476;8.484;2023-06-19T01:42:37;8.85;;;7.80;;
12947;SDS011;6539;49.476;8.484;2023-06-19T01:45:07;7.65;;;6.93;;
12947;SDS011;6539;49.476;8.484;2023-06-19T01:47:34;12.40;;;7.47;;
12947;SDS011;6539;49.476;8.484;2023-06-19T01:50:00;9.43;;;6.63;;
12947;SDS011;6539;49.476;8.484;2023-06-19T01:52:30;10.80;;;6.85;;
12947;SDS011;6539;49.476;8.484;2023-06-19T01:54:55;12.93;;;6.95;;
12947;SDS011;6539;49.476;8.484;2023-06-19T01:57:26;9.05;;;5.80;;
12947;SDS011;6539;49.476;8.484;2023-06-19T01:59:54;6.75;;;5.55;;
12947;SDS011;6539;49.476;8.484;2023-06-19T02:02:20;12.15;;;5.70;;
12947;SDS011;6539;49.476;8.484;2023-06-19T02:04:45;5.97;;;5.32;;
12947;SDS011;6539;49.476;8.484;2023-06-19T02:07:13;6.13;;;5.53;;
12947;SDS011;6539;49.476;8.484;2023-06-19T02:09:44;6.37;;;5.77;;
12947;SDS011;6539;49.476;8.484;2023-06-19T02:12:10;7.10;;;6.20;;
12947;SDS011;6539;49.476;8.484;2023-06-19T02:14:35;6.75;;;6.25;;
12947;SDS011;6539;49.476;8.484;2023-06-19T02:17:03;7.43;;;6.73;;
12947;SDS011;6539;49.476;8.484;2023-06-19T02:19:31;9.87;;;6.53;;
12947;SDS011;6539;49.476;8.484;2023-06-19T02:21:57;7.30;;;6.60;;
12947;SDS011;6539;49.476;8.484;2023-06-19T02:24:25;8.50;;;6.17;;
12947;SDS011;6539;49.476;8.484;2023-06-19T02:26:51;6.70;;;6.10;;
12947;SDS011;6539;49.476;8.484;2023-06-19T02:29:21;6.50;;;5.80;;
12947;SDS011;6539;49.476;8.484;2023-06-19T02:31:47;7.47;;;6.33;;
12947;SDS011;6539;49.476;8.484;2023-06-19T02:34:13;6.83;;;6.00;;
12947;SDS011;6539;49.476;8.484;2023-06-19T02:36:41;9.13;;;6.30;;
12947;SDS011;6539;49.476;8.484;2023-06-19T02:39:12;6.50;;;5.80;;
12947;SDS011;6539;49.476;8.484;2023-06-19T02:41:38;6.40;;;5.57;;
12947;SDS011;6539;49.476;8.484;2023-06-19T02:44:06;7.17;;;5.73;;
12947;SDS011;6539;49.476;8.484;2023-06-19T02:46:35;7.83;;;5.77;;
12947;SDS011;6539;49.476;8.484;2023-06-19T02:49:01;6.83;;;6.23;;
12947;SDS011;6539;49.476;8.484;2023-06-19T02:51:29;7.53;;;6.27;;
12947;SDS011;6539;49.476;8.484;2023-06-19T02:53:55;5.70;;;5.10;;
12947;SDS011;6539;49.476;8.484;2023-06-19T02:56:21;5.33;;;4.83;;
12947;SDS011;6539;49.476;8.484;2023-06-19T02:58:47;5.43;;;4.57;;
12947;SDS011;6539;49.476;8.484;2023-06-19T03:01:13;5.13;;;4.00;;
12947;SDS011;6539;49.476;8.484;2023-06-19T03:03:43;5.87;;;4.37;;
12947;SDS011;6539;49.476;8.484;2023-06-19T03:06:11;4.73;;;4.20;;
12947;SDS011;6539;49.476;8.484;2023-06-19T03:08:43;4.10;;;3.80;;
12947;SDS011;6539;49.476;8.484;2023-06-19T03:11:11;5.40;;;4.40;;
12947;SDS011;6539;49.476;8.484;2023-06-19T03:16:15;7.03;;;4.80;;
12947;SDS011;6539;49.476;8.484;2023-06-19T03:18:42;6.07;;;4.30;;
12947;SDS011;6539;49.476;8.484;2023-06-19T03:21:16;5.60;;;4.10;;
12947;SDS011;6539;49.476;8.484;2023-06-19T03:23:44;7.80;;;4.20;;
12947;SDS011;6539;49.476;8.484;2023-06-19T03:26:10;4.87;;;4.33;;
12947;SDS011;6539;49.476;8.484;2023-06-19T03:28:38;5.67;;;5.03;;
12947;SDS011;6539;49.476;8.484;2023-06-19T03:31:06;4.83;;;4.33;;
12947;SDS011;6539;49.476;8.484;2023-06-19T03:33:34;5.03;;;4.10;;
12947;SDS011;6539;49.476;8.484;2023-06-19T03:36:00;6.40;;;3.67;;
12947;SDS011;6539;49.476;8.484;2023-06-19T03:38:28;7.10;;;3.50;;
12947;SDS011;6539;49.476;8.484;2023-06-19T03:40:56;3.77;;;3.47;;
12947;SDS011;6539;49.476;8.484;2023-06-19T03:43:24;6.77;;;3.67;;
12947;SDS011;6539;49.476;8.484;2023-06-19T03:45:53;4.37;;;3.47;;
12947;SDS011;6539;49.476;8.484;2023-06-19T03:48:18;3.90;;;3.50;;
12947;SDS011;6539;49.476;8.484;2023-06-19T03:50:46;4.67;;;3.50;;
12947;SDS011;6539;49.476;8.484;2023-06-19T03:53:12;4.30;;;3.47;;
12947;SDS011;6539;49.476;8.484;2023-06-19T03:55:42;4.90;;;3.30;;
12947;SDS011;6539;49.476;8.484;2023-06-19T03:58:10;4.10;;;3.63;;
12947;SDS011;6539;49.476;8.484;2023-06-19T04:00:36;5.70;;;3.43;;
12947;SDS011;6539;49.476;8.484;2023-06-19T04:03:02;4.13;;;3.20;;
12947;SDS011;6539;49.476;8.484;2023-06-19T04:05:28;3.70;;;3.20;;
12947;SDS011;6539;49.476;8.484;2023-06-19T04:07:56;4.40;;;3.40;;
12947;SDS011;6539;49.476;8.484;2023-06-19T04:10:26;5.03;;;3.23;;
12947;SDS011;6539;49.476;8.484;2023-06-19T04:12:55;4.50;;;3.60;;
12947;SDS011;6539;49.476;8.484;2023-06-19T04:15:22;4.13;;;3.73;;
12947;SDS011;6539;49.476;8.484;2023-06-19T04:17:48;4.03;;;3.30;;
12947;SDS011;6539;49.476;8.484;2023-06-19T04:20:14;3.47;;;3.20;;
12947;SDS011;6539;49.476;8.484;2023-06-19T04:22:40;3.60;;;3.30;;
12947;SDS011;6539;49.476;8.484;2023-06-19T04:25:06;3.93;;;3.40;;
12947;SDS011;6539;49.476;8.484;2023-06-19T04:27:36;4.67;;;3.60;;
12947;SDS011;6539;49.476;8.484;2023-06-19T04:30:06;4.03;;;3.40;;
12947;SDS011;6539;49.476;8.484;2023-06-19T04:32:37;3.40;;;3.10;;
12947;SDS011;6539;49.476;8.484;2023-06-19T04:35:06;4.30;;;3.63;;
12947;SDS011;6539;49.476;8.484;2023-06-19T04:37:36;5.50;;;3.80;;
12947;SDS011;6539;49.476;8.484;2023-06-19T04:40:02;3.50;;;3.20;;
12947;SDS011;6539;49.476;8.484;2023-06-19T04:42:29;5.37;;;3.13;;
12947;SDS011;6539;49.476;8.484;2023-06-19T04:44:54;4.20;;;3.60;;
12947;SDS011;6539;49.476;8.484;2023-06-19T04:47:22;5.23;;;3.70;;
12947;SDS011;6539;49.476;8.484;2023-06-19T04:49:51;3.87;;;3.23;;
12947;SDS011;6539;49.476;8.484;2023-06-19T04:52:19;7.10;;;3.50;;
12947;SDS011;6539;49.476;8.484;2023-06-19T04:54:44;3.23;;;2.93;;
12947;SDS011;6539;49.476;8.484;2023-06-19T04:57:13;5.93;;;3.90;;
12947;SDS011;6539;49.476;8.484;2023-06-19T04:59:39;5.80;;;3.37;;
12947;SDS011;6539;49.476;8.484;2023-06-19T05:02:05;5.37;;;3.00;;
12947;SDS011;6539;49.476;8.484;2023-06-19T05:04:32;3.47;;;2.87;;
12947;SDS011;6539;49.476;8.484;2023-06-19T05:06:58;3.07;;;2.43;;
12947;SDS011;6539;49.476;8.484;2023-06-19T05:09:24;2.97;;;2.67;;
12947;SDS011;6539;49.476;8.484;2023-06-19T05:11:53;5.30;;;3.00;;
12947;SDS011;6539;49.476;8.484;2023-06-19T05:14:22;4.00;;;3.03;;
12947;SDS011;6539;49.476;8.484;2023-06-19T05:16:48;7.27;;;3.67;;
12947;SDS011;6539;49.476;8.484;2023-06-19T05:19:16;3.00;;;2.60;;
12947;SDS011;6539;49.476;8.484;2023-06-19T05:21:46;3.20;;;2.87;;
12947;SDS011;6539;49.476;8.484;2023-06-19T05:24:12;3.23;;;2.93;;
12947;SDS011;6539;49.476;8.484;2023-06-19T05:26:38;4.83;;;3.20;;
12947;SDS011;6539;49.476;8.484;2023-06-19T05:29:04;3.63;;;2.97;;
12947;SDS011;6539;49.476;8.484;2023-06-19T05:31:36;3.97;;;3.30;;
12947;SDS011;6539;49.476;8.484;2023-06-19T05:34:04;6.40;;;3.30;;
12947;SDS011;6539;49.476;8.484;2023-06-19T05:36:33;4.70;;;3.30;;
12947;SDS011;6539;49.476;8.484;2023-06-19T05:39:01;4.20;;;3.57;;
12947;SDS011;6539;49.476;8.484;2023-06-19T05:41:27;4.17;;;3.30;;
12947;SDS011;6539;49.476;8.484;2023-06-19T05:43:52;5.83;;;2.90;;
12947;SDS011;6539;49.476;8.484;2023-06-19T05:46:18;3.67;;;3.20;;
12947;SDS011;6539;49.476;8.484;2023-06-19T05:48:44;4.77;;;3.40;;
12947;SDS011;6539;49.476;8.484;2023-06-19T05:51:13;4.37;;;3.60;;
12947;SDS011;6539;49.476;8.484;2023-06-19T05:53:39;9.10;;;3.10;;
12947;SDS011;6539;49.476;8.484;2023-06-19T05:56:05;4.23;;;3.33;;
12947;SDS011;6539;49.476;8.484;2023-06-19T05:58:32;5.30;;;3.40;;
12947;SDS011;6539;49.476;8.484;2023-06-19T06:00:57;6.57;;;3.67;;
12947;SDS011;6539;49.476;8.484;2023-06-19T06:03:26;3.53;;;3.20;;
12947;SDS011;6539;49.476;8.484;2023-06-19T06:05:57;5.00;;;3.17;;
12947;SDS011;6539;49.476;8.484;2023-06-19T06:08:28;3.83;;;3.50;;
12947;SDS011;6539;49.476;8.484;2023-06-19T06:10:57;6.87;;;3.93;;
12947;SDS011;6539;49.476;8.484;2023-06-19T06:13:25;3.60;;;3.10;;
12947;SDS011;6539;49.476;8.484;2023-06-19T06:15:50;5.53;;;3.80;;
12947;SDS011;6539;49.476;8.484;2023-06-19T06:18:16;4.33;;;3.70;;
12947;SDS011;6539;49.476;8.484;2023-06-19T06:20:47;6.40;;;3.70;;
12947;SDS011;6539;49.476;8.484;2023-06-19T06:23:13;4.80;;;3.53;;
12947;SDS011;6539;49.476;8.484;2023-06-19T06:25:39;4.32;;;3.92;;
12947;SDS011;6539;49.476;8.484;2023-06-19T06:28:07;4.50;;;3.60;;
12947;SDS011;6539;49.476;8.484;2023-06-19T06:30:35;4.10;;;3.60;;
12947;SDS011;6539;49.476;8.484;2023-06-19T06:33:03;4.03;;;3.60;;
12947;SDS011;6539;49.476;8.484;2023-06-19T06:35:33;3.92;;;3.53;;
12947;SDS011;6539;49.476;8.484;2023-06-19T06:38:01;5.33;;;3.47;;
12947;SDS011;6539;49.476;8.484;2023-06-19T06:40:30;9.63;;;3.63;;
12947;SDS011;6539;49.476;8.484;2023-06-19T06:42:56;4.53;;;3.97;;
12947;SDS011;6539;49.476;8.484;2023-06-19T06:45:24;3.80;;;3.50;;
12947;SDS011;6539;49.476;8.484;2023-06-19T06:47:50;4.37;;;3.87;;
12947;SDS011;6539;49.476;8.484;2023-06-19T06:50:16;4.50;;;4.07;;
12947;SDS011;6539;49.476;8.484;2023-06-19T06:52:42;6.47;;;3.50;;
12947;SDS011;6539;49.476;8.484;2023-06-19T06:55:07;4.32;;;3.92;;
12947;SDS011;6539;49.476;8.484;2023-06-19T06:57:34;6.30;;;4.00;;
12947;SDS011;6539;49.476;8.484;2023-06-19T07:00:00;5.22;;;4.55;;
12947;SDS011;6539;49.476;8.484;2023-06-19T07:02:32;4.97;;;3.95;;
12947;SDS011;6539;49.476;8.484;2023-06-19T07:04:57;5.15;;;4.10;;
12947;SDS011;6539;49.476;8.484;2023-06-19T07:07:26;5.82;;;4.22;;
12947;SDS011;6539;49.476;8.484;2023-06-19T07:09:56;5.97;;;4.65;;
12947;SDS011;6539;49.476;8.484;2023-06-19T07:12:24;4.85;;;4.35;;
12947;SDS011;6539;49.476;8.484;2023-06-19T07:14:53;4.88;;;4.40;;
12947;SDS011;6539;49.476;8.484;2023-06-19T07:17:19;4.78;;;4.28;;
12947;SDS011;6539;49.476;8.484;2023-06-19T07:19:47;5.68;;;4.22;;
12947;SDS011;6539;49.476;8.484;2023-06-19T07:22:15;5.07;;;4.10;;
12947;SDS011;6539;49.476;8.484;2023-06-19T07:24:41;5.53;;;4.10;;
12947;SDS011;6539;49.476;8.484;2023-06-19T07:27:07;7.63;;;4.85;;
12947;SDS011;6539;49.476;8.484;2023-06-19T07:29:33;6.95;;;4.93;;
12947;SDS011;6539;49.476;8.484;2023-06-19T07:31:59;5.93;;;4.75;;
12947;SDS011;6539;49.476;8.484;2023-06-19T07:34:27;8.27;;;4.82;;
12947;SDS011;6539;49.476;8.484;2023-06-19T07:36:53;4.57;;;4.18;;
12947;SDS011;6539;49.476;8.484;2023-06-19T07:39:18;5.35;;;4.82;;
12947;SDS011;6539;49.476;8.484;2023-06-19T07:41:44;5.95;;;5.00;;
12947;SDS011;6539;49.476;8.484;2023-06-19T07:44:15;6.88;;;4.90;;
12947;SDS011;6539;49.476;8.484;2023-06-19T07:46:43;6.00;;;5.32;;
12947;SDS011;6539;49.476;8.484;2023-06-19T07:49:09;5.60;;;5.05;;
12947;SDS011;6539;49.476;8.484;2023-06-19T07:51:34;5.90;;;5.30;;
12947;SDS011;6539;49.476;8.484;2023-06-19T07:54:03;5.85;;;5.35;;
12947;SDS011;6539;49.476;8.484;2023-06-19T07:56:28;7.50;;;5.20;;
12947;SDS011;6539;49.476;8.484;2023-06-19T07:58:54;5.70;;;4.78;;
12947;SDS011;6539;49.476;8.484;2023-06-19T08:01:21;7.07;;;5.20;;
12947;SDS011;6539;49.476;8.484;2023-06-19T08:03:49;9.02;;;5.25;;
12947;SDS011;6539;49.476;8.484;2023-06-19T08:06:15;8.45;;;5.50;;
12947;SDS011;6539;49.476;8.484;2023-06-19T08:08:43;8.30;;;5.35;;
12947;SDS011;6539;49.476;8.484;2023-06-19T08:11:09;7.50;;;5.07;;
12947;SDS011;6539;49.476;8.484;2023-06-19T08:13:35;6.13;;;5.15;;
12947;SDS011;6539;49.476;8.484;2023-06-19T08:16:01;5.75;;;5.07;;
12947;SDS011;6539;49.476;8.484;2023-06-19T08:18:26;6.35;;;5.35;;
12947;SDS011;6539;49.476;8.484;2023-06-19T08:20:52;5.70;;;5.20;;
12947;SDS011;6539;49.476;8.484;2023-06-19T08:23:20;5.55;;;4.72;;
12947;SDS011;6539;49.476;8.484;2023-06-19T08:25:46;5.75;;;5.15;;
12947;SDS011;6539;49.476;8.484;2023-06-19T08:28:12;5.13;;;4.68;;
12947;SDS011;6539;49.476;8.484;2023-06-19T08:30:37;5.85;;;5.30;;
12947;SDS011;6539;49.476;8.484;2023-06-19T08:33:03;6.20;;;5.60;;
12947;SDS011;6539;49.476;8.484;2023-06-19T08:35:29;5.88;;;5.05;;
12947;SDS011;6539;49.476;8.484;2023-06-19T08:37:55;5.63;;;5.13;;
12947;SDS011;6539;49.476;8.484;2023-06-19T08:40:23;6.30;;;5.65;;
12947;SDS011;6539;49.476;8.484;2023-06-19T08:42:51;6.70;;;5.53;;
12947;SDS011;6539;49.476;8.484;2023-06-19T08:45:17;6.93;;;5.45;;
12947;SDS011;6539;49.476;8.484;2023-06-19T08:47:46;7.00;;;5.70;;
12947;SDS011;6539;49.476;8.484;2023-06-19T08:50:17;7.38;;;5.20;;
12947;SDS011;6539;49.476;8.484;2023-06-19T08:52:42;6.72;;;5.13;;
12947;SDS011;6539;49.476;8.484;2023-06-19T08:55:11;9.60;;;6.20;;
12947;SDS011;6539;49.476;8.484;2023-06-19T08:57:39;11.85;;;5.15;;
12947;SDS011;6539;49.476;8.484;2023-06-19T09:00:06;6.53;;;5.85;;
12947;SDS011;6539;49.476;8.484;2023-06-19T09:02:46;5.45;;;5.03;;
12947;SDS011;6539;49.476;8.484;2023-06-19T09:05:12;5.68;;;5.22;;
12947;SDS011;6539;49.476;8.484;2023-06-19T09:07:41;6.07;;;5.13;;
12947;SDS011;6539;49.476;8.484;2023-06-19T09:10:17;5.40;;;4.90;;
12947;SDS011;6539;49.476;8.484;2023-06-19T09:12:44;6.13;;;5.13;;
12947;SDS011;6539;49.476;8.484;2023-06-19T09:15:37;7.05;;;5.28;;
12947;SDS011;6539;49.476;8.484;2023-06-19T09:18:10;5.65;;;5.05;;
12947;SDS011;6539;49.476;8.484;2023-06-19T09:20:38;5.50;;;5.00;;
12947;SDS011;6539;49.476;8.484;2023-06-19T09:23:09;10.95;;;5.55;;
12947;SDS011;6539;49.476;8.484;2023-06-19T09:25:50;6.07;;;5.47;;
12947;SDS011;6539;49.476;8.484;2023-06-19T09:28:23;5.90;;;5.30;;
12947;SDS011;6539;49.476;8.484;2023-06-19T09:30:55;8.68;;;5.13;;
12947;SDS011;6539;49.476;8.484;2023-06-19T09:33:27;7.00;;;5.30;;
12947;SDS011;6539;49.476;8.484;2023-06-19T09:36:02;5.63;;;5.13;;
12947;SDS011;6539;49.476;8.484;2023-06-19T09:38:32;8.63;;;5.93;;
12947;SDS011;6539;49.476;8.484;2023-06-19T09:41:05;4.75;;;4.28;;
12947;SDS011;6539;49.476;8.484;2023-06-19T09:46:09;7.03;;;4.78;;
12947;SDS011;6539;49.476;8.484;2023-06-19T09:48:39;5.88;;;5.30;;
12947;SDS011;6539;49.476;8.484;2023-06-19T09:53:48;5.60;;;5.03;;
12947;SDS011;6539;49.476;8.484;2023-06-19T09:56:17;7.72;;;5.13;;
12947;SDS011;6539;49.476;8.484;2023-06-19T09:58:51;7.55;;;5.63;;
12947;SDS011;6539;49.476;8.484;2023-06-19T10:01:21;5.78;;;5.22;;
12947;SDS011;6539;49.476;8.484;2023-06-19T10:04:00;5.50;;;5.00;;
12947;SDS011;6539;49.476;8.484;2023-06-19T10:06:29;6.78;;;5.13;;
12947;SDS011;6539;49.476;8.484;2023-06-19T10:09:05;5.40;;;4.90;;
12947;SDS011;6539;49.476;8.484;2023-06-19T10:11:52;6.88;;;5.25;;
12947;SDS011;6539;49.476;8.484;2023-06-19T10:14:18;5.13;;;4.45;;
12947;SDS011;6539;49.476;8.484;2023-06-19T10:16:50;6.43;;;4.88;;
12947;SDS011;6539;49.476;8.484;2023-06-19T10:19:16;6.32;;;4.85;;
12947;SDS011;6539;49.476;8.484;2023-06-19T10:21:47;6.75;;;5.05;;
12947;SDS011;6539;49.476;8.484;2023-06-19T10:24:19;5.35;;;4.90;;
12947;SDS011;6539;49.476;8.484;2023-06-19T10:27:00;5.93;;;4.80;;
12947;SDS011;6539;49.476;8.484;2023-06-19T10:29:40;5.10;;;4.60;;
12947;SDS011;6539;49.476;8.484;2023-06-19T10:32:06;10.13;;;5.45;;
12947;SDS011;6539;49.476;8.484;2023-06-19T10:34:33;5.45;;;4.88;;
12947;SDS011;6539;49.476;8.484;2023-06-19T10:37:04;4.82;;;4.40;;
12947;SDS011;6539;49.476;8.484;2023-06-19T10:39:32;4.85;;;4.40;;
12947;SDS011;6539;49.476;8.484;2023-06-19T10:42:00;5.05;;;4.63;;
12947;SDS011;6539;49.476;8.484;2023-06-19T10:44:30;4.88;;;3.90;;
12947;SDS011;6539;49.476;8.484;2023-06-19T10:46:56;4.47;;;4.07;;
12947;SDS011;6539;49.476;8.484;2023-06-19T10:49:22;5.28;;;4.57;;
12947;SDS011;6539;49.476;8.484;2023-06-19T10:51:48;6.65;;;4.70;;
12947;SDS011;6539;49.476;8.484;2023-06-19T10:54:24;6.45;;;4.40;;
12947;SDS011;6539;49.476;8.484;2023-06-19T10:56:50;6.72;;;4.63;;
12947;SDS011;6539;49.476;8.484;2023-06-19T10:59:19;6.32;;;4.38;;
12947;SDS011;6539;49.476;8.484;2023-06-19T11:01:47;4.88;;;4.47;;
12947;SDS011;6539;49.476;8.484;2023-06-19T11:04:15;8.00;;;4.35;;
12947;SDS011;6539;49.476;8.484;2023-06-19T11:06:43;4.10;;;3.70;;
12947;SDS011;6539;49.476;8.484;2023-06-19T11:09:13;5.07;;;4.18;;
12947;SDS011;6539;49.476;8.484;2023-06-19T11:11:43;5.53;;;4.40;;
12947;SDS011;6539;49.476;8.484;2023-06-19T11:14:14;4.28;;;3.90;;
12947;SDS011;6539;49.476;8.484;2023-06-19T11:16:45;4.43;;;4.03;;
12947;SDS011;6539;49.476;8.484;2023-06-19T11:19:16;5.05;;;4.00;;
12947;SDS011;6539;49.476;8.484;2023-06-19T11:21:50;3.72;;;3.42;;
12947;SDS011;6539;49.476;8.484;2023-06-19T11:24:19;4.95;;;3.42;;
12947;SDS011;6539;49.476;8.484;2023-06-19T11:26:49;4.95;;;3.80;;
12947;SDS011;6539;49.476;8.484;2023-06-19T11:29:19;5.85;;;4.20;;
12947;SDS011;6539;49.476;8.484;2023-06-19T11:31:46;5.18;;;4.00;;
12947;SDS011;6539;49.476;8.484;2023-06-19T11:34:13;4.63;;;4.05;;
12947;SDS011;6539;49.476;8.484;2023-06-19T11:36:42;4.18;;;3.70;;
12947;SDS011;6539;49.476;8.484;2023-06-19T11:39:14;4.28;;;3.42;;
12947;SDS011;6539;49.476;8.484;2023-06-19T11:41:44;5.28;;;4.70;;
12947;SDS011;6539;49.476;8.484;2023-06-19T11:44:12;4.85;;;4.40;;
12947;SDS011;6539;49.476;8.484;2023-06-19T11:46:42;4.72;;;4.32;;
12947;SDS011;6539;49.476;8.484;2023-06-19T11:49:08;7.03;;;5.20;;
12947;SDS011;6539;49.476;8.484;2023-06-19T11:51:34;6.07;;;5.15;;
12947;SDS011;6539;49.476;8.484;2023-06-19T11:54:07;5.35;;;4.50;;
12947;SDS011;6539;49.476;8.484;2023-06-19T11:56:34;4.75;;;4.35;;
12947;SDS011;6539;49.476;8.484;2023-06-19T11:59:01;4.88;;;4.30;;
12947;SDS011;6539;49.476;8.484;2023-06-19T12:01:34;4.60;;;4.20;;
12947;SDS011;6539;49.476;8.484;2023-06-19T12:04:03;5.15;;;4.75;;
12947;SDS011;6539;49.476;8.484;2023-06-19T12:06:30;4.43;;;4.03;;
12947;SDS011;6539;49.476;8.484;2023-06-19T12:09:02;4.80;;;4.30;;
12947;SDS011;6539;49.476;8.484;2023-06-19T12:11:31;5.50;;;4.40;;
12947;SDS011;6539;49.476;8.484;2023-06-19T12:13:57;5.43;;;4.30;;
12947;SDS011;6539;49.476;8.484;2023-06-19T12:16:26;7.00;;;4.38;;
12947;SDS011;6539;49.476;8.484;2023-06-19T12:18:55;5.85;;;4.78;;
12947;SDS011;6539;49.476;8.484;2023-06-19T12:21:21;5.63;;;4.30;;
12947;SDS011;6539;49.476;8.484;2023-06-19T12:23:49;4.70;;;4.22;;
12947;SDS011;6539;49.476;8.484;2023-06-19T12:26:14;4.72;;;4.32;;
12947;SDS011;6539;49.476;8.484;2023-06-19T12:28:43;5.40;;;4.22;;
12947;SDS011;6539;49.476;8.484;2023-06-19T12:31:12;5.90;;;4.20;;
12947;SDS011;6539;49.476;8.484;2023-06-19T12:33:37;5.05;;;4.25;;
12947;SDS011;6539;49.476;8.484;2023-06-19T12:36:08;6.65;;;3.83;;
12947;SDS011;6539;49.476;8.484;2023-06-19T12:38:37;4.70;;;3.92;;
12947;SDS011;6539;49.476;8.484;2023-06-19T12:41:04;5.80;;;4.50;;
12947;SDS011;6539;49.476;8.484;2023-06-19T12:43:30;4.85;;;4.45;;
12947;SDS011;6539;49.476;8.484;2023-06-19T12:45:59;5.85;;;4.30;;
12947;SDS011;6539;49.476;8.484;2023-06-19T12:48:26;4.57;;;3.78;;
12947;SDS011;6539;49.476;8.484;2023-06-19T12:50:54;4.40;;;3.55;;
12947;SDS011;6539;49.476;8.484;2023-06-19T12:53:21;5.22;;;3.88;;
12947;SDS011;6539;49.476;8.484;2023-06-19T12:55:51;4.85;;;3.72;;
12947;SDS011;6539;49.476;8.484;2023-06-19T12:58:18;5.82;;;4.30;;
12947;SDS011;6539;49.476;8.484;2023-06-19T13:00:44;4.78;;;4.32;;
12947;SDS011;6539;49.476;8.484;2023-06-19T13:03:10;6.35;;;5.50;;
12947;SDS011;6539;49.476;8.484;2023-06-19T13:05:37;4.40;;;3.95;;
12947;SDS011;6539;49.476;8.484;2023-06-19T13:08:03;4.38;;;4.07;;
12947;SDS011;6539;49.476;8.484;2023-06-19T13:10:29;4.60;;;4.20;;
12947;SDS011;6539;49.476;8.484;2023-06-19T13:12:57;5.53;;;4.38;;
12947;SDS011;6539;49.476;8.484;2023-06-19T13:15:25;4.43;;;4.03;;
12947;SDS011;6539;49.476;8.484;2023-06-19T13:17:52;4.15;;;3.75;;
12947;SDS011;6539;49.476;8.484;2023-06-19T13:20:26;4.40;;;4.00;;
12947;SDS011;6539;49.476;8.484;2023-06-19T13:22:51;4.18;;;3.88;;
12947;SDS011;6539;49.476;8.484;2023-06-19T13:25:22;4.78;;;4.20;;
12947;SDS011;6539;49.476;8.484;2023-06-19T13:27:48;4.72;;;4.32;;
12947;SDS011;6539;49.476;8.484;2023-06-19T13:30:13;4.85;;;4.35;;
12947;SDS011;6539;49.476;8.484;2023-06-19T13:32:42;4.40;;;4.07;;
12947;SDS011;6539;49.476;8.484;2023-06-19T13:35:10;4.50;;;4.10;;
12947;SDS011;6539;49.476;8.484;2023-06-19T13:37:36;7.18;;;4.53;;
12947;SDS011;6539;49.476;8.484;2023-06-19T13:40:06;5.28;;;3.95;;
12947;SDS011;6539;49.476;8.484;2023-06-19T13:42:39;5.80;;;4.18;;
12947;SDS011;6539;49.476;8.484;2023-06-19T13:45:07;4.72;;;4.32;;
12947;SDS011;6539;49.476;8.484;2023-06-19T13:47:36;5.70;;;4.28;;
12947;SDS011;6539;49.476;8.484;2023-06-19T13:50:02;4.70;;;4.30;;
12947;SDS011;6539;49.476;8.484;2023-06-19T13:52:31;4.32;;;3.92;;
12947;SDS011;6539;49.476;8.484;2023-06-19T13:54:59;4.55;;;4.15;;
12947;SDS011;6539;49.476;8.484;2023-06-19T13:57:27;5.35;;;4.70;;
12947;SDS011;6539;49.476;8.484;2023-06-19T13:59:55;7.13;;;5.25;;
12947;SDS011;6539;49.476;8.484;2023-06-19T14:02:23;4.78;;;4.20;;
12947;SDS011;6539;49.476;8.484;2023-06-19T14:04:49;4.93;;;4.43;;
12947;SDS011;6539;49.476;8.484;2023-06-19T14:07:15;4.63;;;4.22;;
12947;SDS011;6539;49.476;8.484;2023-06-19T14:09:42;4.55;;;4.20;;
12947;SDS011;6539;49.476;8.484;2023-06-19T14:12:11;4.82;;;4.10;;
12947;SDS011;6539;49.476;8.484;2023-06-19T14:14:37;5.55;;;4.25;;
12947;SDS011;6539;49.476;8.484;2023-06-19T14:17:05;4.90;;;4.35;;
12947;SDS011;6539;49.476;8.484;2023-06-19T14:19:31;5.35;;;4.10;;
12947;SDS011;6539;49.476;8.484;2023-06-19T14:21:57;6.00;;;4.53;;
12947;SDS011;6539;49.476;8.484;2023-06-19T14:24:22;4.20;;;3.90;;
12947;SDS011;6539;49.476;8.484;2023-06-19T14:26:49;5.65;;;4.13;;
12947;SDS011;6539;49.476;8.484;2023-06-19T14:29:15;4.72;;;4.32;;
12947;SDS011;6539;49.476;8.484;2023-06-19T14:31:43;4.22;;;3.83;;
12947;SDS011;6539;49.476;8.484;2023-06-19T14:34:14;6.50;;;4.55;;
12947;SDS011;6539;49.476;8.484;2023-06-19T14:36:45;5.45;;;4.75;;
12947;SDS011;6539;49.476;8.484;2023-06-19T14:39:11;4.57;;;4.15;;
12947;SDS011;6539;49.476;8.484;2023-06-19T14:41:37;6.00;;;4.35;;
12947;SDS011;6539;49.476;8.484;2023-06-19T14:44:04;5.05;;;3.92;;
12947;SDS011;6539;49.476;8.484;2023-06-19T14:46:33;5.50;;;4.78;;
12947;SDS011;6539;49.476;8.484;2023-06-19T14:49:04;5.80;;;4.30;;
12947;SDS011;6539;49.476;8.484;2023-06-19T14:51:41;6.28;;;4.60;;
12947;SDS011;6539;49.476;8.484;2023-06-19T14:54:08;5.95;;;4.53;;
12947;SDS011;6539;49.476;8.484;2023-06-19T14:56:34;6.68;;;4.25;;
12947;SDS011;6539;49.476;8.484;2023-06-19T14:58:59;5.00;;;4.53;;
12947;SDS011;6539;49.476;8.484;2023-06-19T15:01:27;6.40;;;4.50;;
12947;SDS011;6539;49.476;8.484;2023-06-19T15:03:55;5.32;;;4.40;;
12947;SDS011;6539;49.476;8.484;2023-06-19T15:06:21;5.50;;;4.70;;
12947;SDS011;6539;49.476;8.484;2023-06-19T15:08:50;5.28;;;4.30;;
12947;SDS011;6539;49.476;8.484;2023-06-19T15:11:16;5.05;;;4.43;;
12947;SDS011;6539;49.476;8.484;2023-06-19T15:13:42;7.28;;;4.55;;
12947;SDS011;6539;49.476;8.484;2023-06-19T15:16:07;4.95;;;4.35;;
12947;SDS011;6539;49.476;8.484;2023-06-19T15:18:36;4.95;;;4.35;;
12947;SDS011;6539;49.476;8.484;2023-06-19T15:21:03;4.85;;;4.40;;
12947;SDS011;6539;49.476;8.484;2023-06-19T15:23:32;6.82;;;4.43;;